sensor_id;sensor_type;location;lat;lon;timestamp;P1;durP1;ratioP1;P2;durP2;ratioP2
22949;SDS011;11641;51.018;4.474;2023-04-03T00:00:09;13.13;;;6.25;;
22949;SDS011;11641;51.018;4.474;2023-04-03T00:02:35;12.73;;;6.05;;
22949;SDS011;11641;51.018;4.474;2023-04-03T00:05:05;10.10;;;5.60;;
22949;SDS011;11641;51.018;4.474;2023-04-03T00:07:31;12.02;;;6.00;;
22949;SDS011;11641;51.018;4.474;2023-04-03T00:09:57;8.20;;;5.75;;
22949;SDS011;11641;51.018;4.474;2023-04-03T00:12:25;11.07;;;5.57;;
22949;SDS011;11641;51.018;4.474;2023-04-03T00:14:53;9.95;;;5.85;;
22949;SDS011;11641;51.018;4.474;2023-04-03T00:17:21;12.55;;;6.00;;
22949;SDS011;11641;51.018;4.474;2023-04-03T00:19:48;10.88;;;6.13;;
22949;SDS011;11641;51.018;4.474;2023-04-03T00:22:14;13.02;;;5.97;;
22949;SDS011;11641;51.018;4.474;2023-04-03T00:24:40;8.15;;;5.70;;
22949;SDS011;11641;51.018;4.474;2023-04-03T00:27:05;8.35;;;5.88;;
22949;SDS011;11641;51.018;4.474;2023-04-03T00:29:31;8.80;;;5.90;;
22949;SDS011;11641;51.018;4.474;2023-04-03T00:31:57;9.65;;;5.47;;
22949;SDS011;11641;51.018;4.474;2023-04-03T00:34:22;9.38;;;5.78;;
22949;SDS011;11641;51.018;4.474;2023-04-03T00:36:48;9.32;;;5.47;;
22949;SDS011;11641;51.018;4.474;2023-04-03T00:39:14;10.95;;;6.03;;
22949;SDS011;11641;51.018;4.474;2023-04-03T00:41:39;7.38;;;5.97;;
22949;SDS011;11641;51.018;4.474;2023-04-03T00:46:58;12.48;;;5.68;;
22949;SDS011;11641;51.018;4.474;2023-04-03T00:49:24;10.00;;;6.13;;
22949;SDS011;11641;51.018;4.474;2023-04-03T00:51:50;8.27;;;5.65;;
22949;SDS011;11641;51.018;4.474;2023-04-03T00:54:16;9.85;;;5.40;;
22949;SDS011;11641;51.018;4.474;2023-04-03T00:56:42;11.57;;;5.60;;
22949;SDS011;11641;51.018;4.474;2023-04-03T00:59:13;10.90;;;5.90;;
22949;SDS011;11641;51.018;4.474;2023-04-03T01:01:43;9.65;;;5.43;;
22949;SDS011;11641;51.018;4.474;2023-04-03T01:07:04;10.40;;;5.47;;
22949;SDS011;11641;51.018;4.474;2023-04-03T01:09:34;9.38;;;5.75;;
22949;SDS011;11641;51.018;4.474;2023-04-03T01:12:17;9.35;;;5.70;;
22949;SDS011;11641;51.018;4.474;2023-04-03T01:14:52;10.15;;;5.70;;
22949;SDS011;11641;51.018;4.474;2023-04-03T01:25:45;9.98;;;5.40;;
22949;SDS011;11641;51.018;4.474;2023-04-03T01:28:14;10.20;;;5.93;;
22949;SDS011;11641;51.018;4.474;2023-04-03T01:30:46;8.43;;;5.43;;
22949;SDS011;11641;51.018;4.474;2023-04-03T01:33:12;7.55;;;4.95;;
22949;SDS011;11641;51.018;4.474;2023-04-03T01:35:38;7.53;;;4.53;;
22949;SDS011;11641;51.018;4.474;2023-04-03T01:38:04;9.88;;;5.80;;
22949;SDS011;11641;51.018;4.474;2023-04-03T01:40:30;7.10;;;5.10;;
22949;SDS011;11641;51.018;4.474;2023-04-03T01:42:55;9.40;;;5.72;;
22949;SDS011;11641;51.018;4.474;2023-04-03T01:45:21;9.70;;;5.97;;
22949;SDS011;11641;51.018;4.474;2023-04-03T01:47:47;8.98;;;5.43;;
22949;SDS011;11641;51.018;4.474;2023-04-03T01:50:12;8.00;;;5.70;;
22949;SDS011;11641;51.018;4.474;2023-04-03T01:52:38;8.57;;;5.70;;
22949;SDS011;11641;51.018;4.474;2023-04-03T01:55:04;9.57;;;5.75;;
22949;SDS011;11641;51.018;4.474;2023-04-03T01:57:32;10.80;;;6.30;;
22949;SDS011;11641;51.018;4.474;2023-04-03T02:00:00;7.63;;;5.22;;
22949;SDS011;11641;51.018;4.474;2023-04-03T02:02:26;10.30;;;5.45;;
22949;SDS011;11641;51.018;4.474;2023-04-03T02:04:51;10.15;;;5.90;;
22949;SDS011;11641;51.018;4.474;2023-04-03T02:07:17;10.18;;;5.97;;
22949;SDS011;11641;51.018;4.474;2023-04-03T02:09:43;8.55;;;5.60;;
22949;SDS011;11641;51.018;4.474;2023-04-03T02:12:08;9.20;;;5.40;;
22949;SDS011;11641;51.018;4.474;2023-04-03T02:14:34;11.60;;;5.57;;
22949;SDS011;11641;51.018;4.474;2023-04-03T02:17:00;9.48;;;5.95;;
22949;SDS011;11641;51.018;4.474;2023-04-03T02:19:29;9.38;;;5.65;;
22949;SDS011;11641;51.018;4.474;2023-04-03T02:21:56;10.10;;;6.10;;
22949;SDS011;11641;51.018;4.474;2023-04-03T02:24:21;8.13;;;5.20;;
22949;SDS011;11641;51.018;4.474;2023-04-03T02:26:47;8.90;;;5.80;;
22949;SDS011;11641;51.018;4.474;2023-04-03T02:29:13;9.27;;;5.85;;
22949;SDS011;11641;51.018;4.474;2023-04-03T02:31:40;10.25;;;5.53;;
22949;SDS011;11641;51.018;4.474;2023-04-03T02:34:06;9.82;;;5.53;;
22949;SDS011;11641;51.018;4.474;2023-04-03T02:36:34;10.43;;;5.22;;
22949;SDS011;11641;51.018;4.474;2023-04-03T02:39:00;9.30;;;6.05;;
22949;SDS011;11641;51.018;4.474;2023-04-03T02:41:25;9.18;;;5.65;;
22949;SDS011;11641;51.018;4.474;2023-04-03T02:43:58;14.35;;;6.60;;
22949;SDS011;11641;51.018;4.474;2023-04-03T02:46:24;10.35;;;5.72;;
22949;SDS011;11641;51.018;4.474;2023-04-03T02:48:49;8.98;;;5.78;;
22949;SDS011;11641;51.018;4.474;2023-04-03T02:51:15;9.43;;;5.47;;
22949;SDS011;11641;51.018;4.474;2023-04-03T02:53:41;8.50;;;6.35;;
22949;SDS011;11641;51.018;4.474;2023-04-03T02:56:06;9.52;;;6.18;;
22949;SDS011;11641;51.018;4.474;2023-04-03T02:58:32;8.77;;;5.70;;
22949;SDS011;11641;51.018;4.474;2023-04-03T03:00:58;9.05;;;6.22;;
22949;SDS011;11641;51.018;4.474;2023-04-03T03:03:23;10.50;;;6.13;;
22949;SDS011;11641;51.018;4.474;2023-04-03T03:05:49;9.90;;;5.78;;
22949;SDS011;11641;51.018;4.474;2023-04-03T03:08:15;9.35;;;5.88;;
22949;SDS011;11641;51.018;4.474;2023-04-03T03:10:40;10.65;;;5.75;;
22949;SDS011;11641;51.018;4.474;2023-04-03T03:13:06;10.05;;;6.38;;
22949;SDS011;11641;51.018;4.474;2023-04-03T03:15:34;9.02;;;6.18;;
22949;SDS011;11641;51.018;4.474;2023-04-03T03:18:02;10.75;;;6.65;;
22949;SDS011;11641;51.018;4.474;2023-04-03T03:20:28;9.27;;;6.15;;
22949;SDS011;11641;51.018;4.474;2023-04-03T03:22:53;10.50;;;6.38;;
22949;SDS011;11641;51.018;4.474;2023-04-03T03:25:21;12.88;;;6.35;;
22949;SDS011;11641;51.018;4.474;2023-04-03T03:27:47;10.65;;;6.25;;
22949;SDS011;11641;51.018;4.474;2023-04-03T03:30:15;10.85;;;6.50;;
22949;SDS011;11641;51.018;4.474;2023-04-03T03:32:42;11.15;;;6.50;;
22949;SDS011;11641;51.018;4.474;2023-04-03T03:35:13;13.30;;;6.50;;
22949;SDS011;11641;51.018;4.474;2023-04-03T03:37:38;8.02;;;5.93;;
22949;SDS011;11641;51.018;4.474;2023-04-03T03:40:04;11.13;;;6.60;;
22949;SDS011;11641;51.018;4.474;2023-04-03T03:42:30;10.43;;;6.40;;
22949;SDS011;11641;51.018;4.474;2023-04-03T03:44:56;9.50;;;6.05;;
22949;SDS011;11641;51.018;4.474;2023-04-03T03:47:21;13.23;;;7.15;;
22949;SDS011;11641;51.018;4.474;2023-04-03T03:49:47;10.55;;;6.20;;
22949;SDS011;11641;51.018;4.474;2023-04-03T03:52:13;13.30;;;7.10;;
22949;SDS011;11641;51.018;4.474;2023-04-03T03:54:38;11.15;;;6.45;;
22949;SDS011;11641;51.018;4.474;2023-04-03T03:57:04;11.05;;;6.88;;
22949;SDS011;11641;51.018;4.474;2023-04-03T03:59:34;9.05;;;6.60;;
22949;SDS011;11641;51.018;4.474;2023-04-03T04:02:00;10.05;;;7.00;;
22949;SDS011;11641;51.018;4.474;2023-04-03T04:04:25;11.43;;;6.60;;
22949;SDS011;11641;51.018;4.474;2023-04-03T04:06:51;11.02;;;6.72;;
22949;SDS011;11641;51.018;4.474;2023-04-03T04:09:17;11.90;;;8.05;;
22949;SDS011;11641;51.018;4.474;2023-04-03T04:11:43;12.50;;;7.60;;
22949;SDS011;11641;51.018;4.474;2023-04-03T04:14:10;10.43;;;6.78;;
22949;SDS011;11641;51.018;4.474;2023-04-03T04:16:38;14.13;;;7.40;;
22949;SDS011;11641;51.018;4.474;2023-04-03T04:19:04;10.70;;;6.85;;
22949;SDS011;11641;51.018;4.474;2023-04-03T04:21:32;10.18;;;6.78;;
22949;SDS011;11641;51.018;4.474;2023-04-03T04:23:57;13.70;;;6.97;;
22949;SDS011;11641;51.018;4.474;2023-04-03T04:26:23;13.35;;;7.63;;
22949;SDS011;11641;51.018;4.474;2023-04-03T04:28:51;13.75;;;6.93;;
22949;SDS011;11641;51.018;4.474;2023-04-03T04:31:17;12.20;;;7.45;;
22949;SDS011;11641;51.018;4.474;2023-04-03T04:33:42;12.02;;;7.38;;
22949;SDS011;11641;51.018;4.474;2023-04-03T04:36:08;11.32;;;7.00;;
22949;SDS011;11641;51.018;4.474;2023-04-03T04:38:34;10.50;;;6.97;;
22949;SDS011;11641;51.018;4.474;2023-04-03T04:41:02;10.85;;;7.68;;
22949;SDS011;11641;51.018;4.474;2023-04-03T04:43:28;12.45;;;8.18;;
22949;SDS011;11641;51.018;4.474;2023-04-03T04:46:01;16.20;;;8.20;;
22949;SDS011;11641;51.018;4.474;2023-04-03T04:48:31;15.32;;;8.07;;
22949;SDS011;11641;51.018;4.474;2023-04-03T04:50:56;11.38;;;8.05;;
22949;SDS011;11641;51.018;4.474;2023-04-03T04:53:22;13.90;;;8.65;;
22949;SDS011;11641;51.018;4.474;2023-04-03T04:55:48;14.82;;;8.48;;
22949;SDS011;11641;51.018;4.474;2023-04-03T04:58:14;12.15;;;8.07;;
22949;SDS011;11641;51.018;4.474;2023-04-03T05:00:42;10.13;;;7.90;;
22949;SDS011;11641;51.018;4.474;2023-04-03T05:03:07;11.75;;;8.30;;
22949;SDS011;11641;51.018;4.474;2023-04-03T05:05:33;14.98;;;8.20;;
22949;SDS011;11641;51.018;4.474;2023-04-03T05:08:01;15.90;;;8.52;;
22949;SDS011;11641;51.018;4.474;2023-04-03T05:10:30;13.90;;;8.45;;
22949;SDS011;11641;51.018;4.474;2023-04-03T05:12:56;17.00;;;8.85;;
22949;SDS011;11641;51.018;4.474;2023-04-03T05:15:22;12.20;;;8.38;;
22949;SDS011;11641;51.018;4.474;2023-04-03T05:17:48;12.20;;;7.95;;
22949;SDS011;11641;51.018;4.474;2023-04-03T05:20:14;14.88;;;8.80;;
22949;SDS011;11641;51.018;4.474;2023-04-03T05:22:39;13.20;;;9.02;;
22949;SDS011;11641;51.018;4.474;2023-04-03T05:25:07;15.10;;;9.23;;
22949;SDS011;11641;51.018;4.474;2023-04-03T05:27:33;13.98;;;9.00;;
22949;SDS011;11641;51.018;4.474;2023-04-03T05:29:59;13.13;;;8.40;;
22949;SDS011;11641;51.018;4.474;2023-04-03T05:32:25;15.05;;;8.63;;
22949;SDS011;11641;51.018;4.474;2023-04-03T05:34:53;13.88;;;7.90;;
22949;SDS011;11641;51.018;4.474;2023-04-03T05:37:19;15.43;;;9.52;;
22949;SDS011;11641;51.018;4.474;2023-04-03T05:39:45;14.57;;;9.50;;
22949;SDS011;11641;51.018;4.474;2023-04-03T05:42:11;15.57;;;8.95;;
22949;SDS011;11641;51.018;4.474;2023-04-03T05:44:38;13.80;;;9.43;;
22949;SDS011;11641;51.018;4.474;2023-04-03T05:47:04;14.35;;;9.20;;
22949;SDS011;11641;51.018;4.474;2023-04-03T05:49:30;18.20;;;9.80;;
22949;SDS011;11641;51.018;4.474;2023-04-03T05:51:56;15.98;;;9.15;;
22949;SDS011;11641;51.018;4.474;2023-04-03T05:54:23;14.00;;;9.40;;
22949;SDS011;11641;51.018;4.474;2023-04-03T05:56:50;23.42;;;9.98;;
22949;SDS011;11641;51.018;4.474;2023-04-03T05:59:19;18.75;;;9.55;;
22949;SDS011;11641;51.018;4.474;2023-04-03T06:01:45;13.63;;;9.23;;
22949;SDS011;11641;51.018;4.474;2023-04-03T06:04:11;19.30;;;8.70;;
22949;SDS011;11641;51.018;4.474;2023-04-03T06:09:21;15.18;;;9.30;;
22949;SDS011;11641;51.018;4.474;2023-04-03T06:11:49;20.08;;;9.85;;
22949;SDS011;11641;51.018;4.474;2023-04-03T06:14:15;14.32;;;8.68;;
22949;SDS011;11641;51.018;4.474;2023-04-03T06:16:41;16.40;;;10.30;;
22949;SDS011;11641;51.018;4.474;2023-04-03T06:19:10;19.92;;;9.57;;
22949;SDS011;11641;51.018;4.474;2023-04-03T06:21:36;12.52;;;9.10;;
22949;SDS011;11641;51.018;4.474;2023-04-03T06:24:03;12.70;;;8.75;;
22949;SDS011;11641;51.018;4.474;2023-04-03T06:26:32;15.57;;;9.55;;
22949;SDS011;11641;51.018;4.474;2023-04-03T06:28:58;17.88;;;9.65;;
22949;SDS011;11641;51.018;4.474;2023-04-03T06:31:26;13.23;;;8.60;;
22949;SDS011;11641;51.018;4.474;2023-04-03T06:33:54;15.07;;;9.25;;
22949;SDS011;11641;51.018;4.474;2023-04-03T06:36:21;13.13;;;9.15;;
22949;SDS011;11641;51.018;4.474;2023-04-03T06:38:49;13.18;;;8.95;;
22949;SDS011;11641;51.018;4.474;2023-04-03T06:41:15;15.98;;;8.50;;
22949;SDS011;11641;51.018;4.474;2023-04-03T06:43:41;10.40;;;8.45;;
22949;SDS011;11641;51.018;4.474;2023-04-03T06:46:17;12.48;;;9.15;;
22949;SDS011;11641;51.018;4.474;2023-04-03T06:48:45;13.52;;;8.30;;
22949;SDS011;11641;51.018;4.474;2023-04-03T06:51:21;12.90;;;8.30;;
22949;SDS011;11641;51.018;4.474;2023-04-03T06:53:52;15.93;;;8.73;;
22949;SDS011;11641;51.018;4.474;2023-04-03T06:56:20;14.98;;;8.48;;
22949;SDS011;11641;51.018;4.474;2023-04-03T06:58:46;14.00;;;7.85;;
22949;SDS011;11641;51.018;4.474;2023-04-03T07:01:12;14.57;;;7.80;;
22949;SDS011;11641;51.018;4.474;2023-04-03T07:03:41;15.15;;;7.47;;
22949;SDS011;11641;51.018;4.474;2023-04-03T07:06:11;16.85;;;7.35;;
22949;SDS011;11641;51.018;4.474;2023-04-03T07:08:37;16.48;;;8.13;;
22949;SDS011;11641;51.018;4.474;2023-04-03T07:11:04;22.75;;;7.68;;
22949;SDS011;11641;51.018;4.474;2023-04-03T07:13:32;21.58;;;8.00;;
22949;SDS011;11641;51.018;4.474;2023-04-03T07:16:01;20.25;;;7.68;;
22949;SDS011;11641;51.018;4.474;2023-04-03T07:18:28;12.07;;;6.80;;
22949;SDS011;11641;51.018;4.474;2023-04-03T07:20:54;12.10;;;6.63;;
22949;SDS011;11641;51.018;4.474;2023-04-03T07:23:20;13.40;;;7.57;;
22949;SDS011;11641;51.018;4.474;2023-04-03T07:25:47;14.25;;;6.47;;
22949;SDS011;11641;51.018;4.474;2023-04-03T07:28:14;11.05;;;6.10;;
22949;SDS011;11641;51.018;4.474;2023-04-03T07:30:48;16.02;;;7.10;;
22949;SDS011;11641;51.018;4.474;2023-04-03T07:33:16;13.82;;;6.60;;
22949;SDS011;11641;51.018;4.474;2023-04-03T07:35:44;11.23;;;6.43;;
22949;SDS011;11641;51.018;4.474;2023-04-03T07:38:12;11.65;;;5.72;;
22949;SDS011;11641;51.018;4.474;2023-04-03T07:40:38;9.88;;;6.47;;
22949;SDS011;11641;51.018;4.474;2023-04-03T07:43:05;10.65;;;5.85;;
22949;SDS011;11641;51.018;4.474;2023-04-03T07:45:31;11.27;;;5.63;;
22949;SDS011;11641;51.018;4.474;2023-04-03T07:47:59;13.23;;;5.75;;
22949;SDS011;11641;51.018;4.474;2023-04-03T07:50:28;10.57;;;5.32;;
22949;SDS011;11641;51.018;4.474;2023-04-03T07:52:55;8.95;;;5.55;;
22949;SDS011;11641;51.018;4.474;2023-04-03T07:55:22;8.57;;;5.03;;
22949;SDS011;11641;51.018;4.474;2023-04-03T07:57:48;9.88;;;5.20;;
22949;SDS011;11641;51.018;4.474;2023-04-03T08:00:14;9.85;;;4.90;;
22949;SDS011;11641;51.018;4.474;2023-04-03T08:02:44;10.10;;;5.28;;
22949;SDS011;11641;51.018;4.474;2023-04-03T08:05:15;7.22;;;4.97;;
22949;SDS011;11641;51.018;4.474;2023-04-03T08:07:43;9.85;;;3.95;;
22949;SDS011;11641;51.018;4.474;2023-04-03T08:10:10;7.50;;;4.82;;
22949;SDS011;11641;51.018;4.474;2023-04-03T08:12:38;9.43;;;4.88;;
22949;SDS011;11641;51.018;4.474;2023-04-03T08:15:04;7.38;;;3.95;;
22949;SDS011;11641;51.018;4.474;2023-04-03T08:17:30;12.77;;;3.97;;
22949;SDS011;11641;51.018;4.474;2023-04-03T08:19:56;12.82;;;4.88;;
22949;SDS011;11641;51.018;4.474;2023-04-03T08:22:21;14.70;;;4.10;;
22949;SDS011;11641;51.018;4.474;2023-04-03T08:24:47;16.83;;;4.10;;
22949;SDS011;11641;51.018;4.474;2023-04-03T08:27:15;9.35;;;3.83;;
22949;SDS011;11641;51.018;4.474;2023-04-03T08:29:40;18.65;;;4.43;;
22949;SDS011;11641;51.018;4.474;2023-04-03T08:32:06;8.52;;;3.30;;
22949;SDS011;11641;51.018;4.474;2023-04-03T08:34:32;15.52;;;4.03;;
22949;SDS011;11641;51.018;4.474;2023-04-03T08:37:02;17.52;;;4.40;;
22949;SDS011;11641;51.018;4.474;2023-04-03T08:39:27;13.57;;;3.20;;
22949;SDS011;11641;51.018;4.474;2023-04-03T08:41:57;9.00;;;3.40;;
22949;SDS011;11641;51.018;4.474;2023-04-03T08:44:36;10.73;;;3.80;;
22949;SDS011;11641;51.018;4.474;2023-04-03T08:50:22;8.43;;;3.78;;
22949;SDS011;11641;51.018;4.474;2023-04-03T08:52:59;7.78;;;3.17;;
22949;SDS011;11641;51.018;4.474;2023-04-03T08:55:36;5.00;;;2.65;;
22949;SDS011;11641;51.018;4.474;2023-04-03T08:58:06;8.52;;;3.05;;
22949;SDS011;11641;51.018;4.474;2023-04-03T09:00:59;5.72;;;2.50;;
22949;SDS011;11641;51.018;4.474;2023-04-03T09:03:29;5.07;;;2.88;;
22949;SDS011;11641;51.018;4.474;2023-04-03T09:11:26;26.42;;;3.78;;
22949;SDS011;11641;51.018;4.474;2023-04-03T09:22:13;5.25;;;1.70;;
22949;SDS011;11641;51.018;4.474;2023-04-03T09:27:40;6.40;;;2.10;;
22949;SDS011;11641;51.018;4.474;2023-04-03T09:30:11;8.82;;;2.00;;
22949;SDS011;11641;51.018;4.474;2023-04-03T09:32:43;4.68;;;1.80;;
22949;SDS011;11641;51.018;4.474;2023-04-03T09:38:14;7.70;;;2.22;;
22949;SDS011;11641;51.018;4.474;2023-04-03T09:40:48;6.35;;;1.58;;
22949;SDS011;11641;51.018;4.474;2023-04-03T09:45:55;7.20;;;2.00;;
22949;SDS011;11641;51.018;4.474;2023-04-03T09:48:43;8.52;;;1.88;;
22949;SDS011;11641;51.018;4.474;2023-04-03T09:51:16;5.90;;;1.63;;
22949;SDS011;11641;51.018;4.474;2023-04-03T09:53:42;4.45;;;1.60;;
22949;SDS011;11641;51.018;4.474;2023-04-03T09:58:41;7.95;;;1.92;;
22949;SDS011;11641;51.018;4.474;2023-04-03T10:01:35;6.07;;;1.90;;
22949;SDS011;11641;51.018;4.474;2023-04-03T10:04:07;5.95;;;1.40;;
22949;SDS011;11641;51.018;4.474;2023-04-03T10:06:45;8.63;;;1.38;;
22949;SDS011;11641;51.018;4.474;2023-04-03T10:09:21;6.90;;;1.58;;
22949;SDS011;11641;51.018;4.474;2023-04-03T10:12:04;4.22;;;1.30;;
22949;SDS011;11641;51.018;4.474;2023-04-03T10:14:35;4.65;;;1.50;;
22949;SDS011;11641;51.018;4.474;2023-04-03T10:22:54;6.95;;;1.67;;
22949;SDS011;11641;51.018;4.474;2023-04-03T10:42:15;4.10;;;1.23;;
22949;SDS011;11641;51.018;4.474;2023-04-03T10:45:10;4.93;;;1.30;;
22949;SDS011;11641;51.018;4.474;2023-04-03T10:48:02;4.07;;;1.30;;
22949;SDS011;11641;51.018;4.474;2023-04-03T10:55:50;2.58;;;1.48;;
22949;SDS011;11641;51.018;4.474;2023-04-03T10:58:32;3.00;;;1.38;;
22949;SDS011;11641;51.018;4.474;2023-04-03T11:01:12;3.85;;;1.17;;
22949;SDS011;11641;51.018;4.474;2023-04-03T11:03:55;5.35;;;1.27;;
22949;SDS011;11641;51.018;4.474;2023-04-03T11:06:26;3.00;;;1.02;;
22949;SDS011;11641;51.018;4.474;2023-04-03T11:09:02;3.20;;;1.40;;
22949;SDS011;11641;51.018;4.474;2023-04-03T11:11:37;4.25;;;1.20;;
22949;SDS011;11641;51.018;4.474;2023-04-03T11:14:29;9.73;;;1.35;;
22949;SDS011;11641;51.018;4.474;2023-04-03T11:19:49;4.22;;;1.15;;
22949;SDS011;11641;51.018;4.474;2023-04-03T11:22:26;6.07;;;1.50;;
22949;SDS011;11641;51.018;4.474;2023-04-03T11:35:30;7.85;;;1.40;;
22949;SDS011;11641;51.018;4.474;2023-04-03T11:37:57;5.65;;;1.35;;
22949;SDS011;11641;51.018;4.474;2023-04-03T11:40:28;3.38;;;1.30;;
22949;SDS011;11641;51.018;4.474;2023-04-03T11:53:46;3.83;;;1.17;;
22949;SDS011;11641;51.018;4.474;2023-04-03T12:01:51;3.83;;;1.40;;
22949;SDS011;11641;51.018;4.474;2023-04-03T12:04:23;2.45;;;0.80;;
22949;SDS011;11641;51.018;4.474;2023-04-03T12:06:52;3.60;;;1.30;;
22949;SDS011;11641;51.018;4.474;2023-04-03T12:41:00;3.15;;;0.80;;
22949;SDS011;11641;51.018;4.474;2023-04-03T12:51:16;4.63;;;1.20;;
22949;SDS011;11641;51.018;4.474;2023-04-03T12:53:46;2.08;;;0.80;;
22949;SDS011;11641;51.018;4.474;2023-04-03T12:56:27;5.13;;;1.08;;
22949;SDS011;11641;51.018;4.474;2023-04-03T12:58:55;5.63;;;1.13;;
22949;SDS011;11641;51.018;4.474;2023-04-03T13:01:56;2.03;;;0.80;;
22949;SDS011;11641;51.018;4.474;2023-04-03T13:04:32;2.55;;;0.90;;
22949;SDS011;11641;51.018;4.474;2023-04-03T13:07:05;6.97;;;1.25;;
22949;SDS011;11641;51.018;4.474;2023-04-03T13:09:55;2.35;;;1.10;;
22949;SDS011;11641;51.018;4.474;2023-04-03T13:12:24;4.25;;;1.33;;
22949;SDS011;11641;51.018;4.474;2023-04-03T13:14:54;5.95;;;1.30;;
22949;SDS011;11641;51.018;4.474;2023-04-03T13:17:25;20.08;;;2.22;;
22949;SDS011;11641;51.018;4.474;2023-04-03T13:19:52;21.58;;;2.72;;
22949;SDS011;11641;51.018;4.474;2023-04-03T13:22:38;9.82;;;2.05;;
22949;SDS011;11641;51.018;4.474;2023-04-03T13:25:13;6.00;;;1.25;;
22949;SDS011;11641;51.018;4.474;2023-04-03T13:27:41;5.90;;;1.58;;
22949;SDS011;11641;51.018;4.474;2023-04-03T13:30:28;4.78;;;1.67;;
22949;SDS011;11641;51.018;4.474;2023-04-03T13:33:00;7.38;;;1.70;;
22949;SDS011;11641;51.018;4.474;2023-04-03T13:35:36;6.47;;;1.42;;
22949;SDS011;11641;51.018;4.474;2023-04-03T13:38:21;2.83;;;1.20;;
22949;SDS011;11641;51.018;4.474;2023-04-03T13:40:53;5.68;;;1.52;;
22949;SDS011;11641;51.018;4.474;2023-04-03T13:43:24;5.07;;;1.55;;
22949;SDS011;11641;51.018;4.474;2023-04-03T13:45:53;4.70;;;1.23;;
22949;SDS011;11641;51.018;4.474;2023-04-03T13:48:21;4.22;;;1.25;;
22949;SDS011;11641;51.018;4.474;2023-04-03T13:50:56;3.83;;;1.23;;
22949;SDS011;11641;51.018;4.474;2023-04-03T13:53:27;5.60;;;1.60;;
22949;SDS011;11641;51.018;4.474;2023-04-03T13:58:30;2.95;;;1.13;;
22949;SDS011;11641;51.018;4.474;2023-04-03T14:03:46;2.90;;;1.10;;
22949;SDS011;11641;51.018;4.474;2023-04-03T14:06:17;3.25;;;1.40;;
22949;SDS011;11641;51.018;4.474;2023-04-03T14:08:43;4.35;;;1.60;;
22949;SDS011;11641;51.018;4.474;2023-04-03T14:11:20;2.35;;;1.15;;
22949;SDS011;11641;51.018;4.474;2023-04-03T14:13:49;4.25;;;1.27;;
22949;SDS011;11641;51.018;4.474;2023-04-03T14:16:17;4.72;;;1.25;;
22949;SDS011;11641;51.018;4.474;2023-04-03T14:18:48;2.47;;;1.17;;
22949;SDS011;11641;51.018;4.474;2023-04-03T14:21:15;5.18;;;1.45;;
22949;SDS011;11641;51.018;4.474;2023-04-03T14:23:42;4.15;;;1.10;;
22949;SDS011;11641;51.018;4.474;2023-04-03T14:26:10;2.83;;;1.23;;
22949;SDS011;11641;51.018;4.474;2023-04-03T14:28:41;4.17;;;1.17;;
22949;SDS011;11641;51.018;4.474;2023-04-03T14:31:09;3.10;;;1.00;;
22949;SDS011;11641;51.018;4.474;2023-04-03T14:33:36;1.30;;;0.80;;
22949;SDS011;11641;51.018;4.474;2023-04-03T14:36:10;2.17;;;1.05;;
22949;SDS011;11641;51.018;4.474;2023-04-03T14:38:39;3.47;;;1.30;;
22949;SDS011;11641;51.018;4.474;2023-04-03T14:41:06;4.70;;;1.10;;
22949;SDS011;11641;51.018;4.474;2023-04-03T14:43:32;6.20;;;1.02;;
22949;SDS011;11641;51.018;4.474;2023-04-03T14:45:57;4.28;;;1.00;;
22949;SDS011;11641;51.018;4.474;2023-04-03T14:48:24;5.75;;;1.20;;
22949;SDS011;11641;51.018;4.474;2023-04-03T14:50:52;3.70;;;0.95;;
22949;SDS011;11641;51.018;4.474;2023-04-03T14:53:18;2.63;;;0.90;;
22949;SDS011;11641;51.018;4.474;2023-04-03T14:55:47;4.80;;;1.35;;
22949;SDS011;11641;51.018;4.474;2023-04-03T14:58:15;17.10;;;3.03;;
22949;SDS011;11641;51.018;4.474;2023-04-03T15:00:46;12.68;;;2.30;;
22949;SDS011;11641;51.018;4.474;2023-04-03T15:03:14;7.55;;;1.40;;
22949;SDS011;11641;51.018;4.474;2023-04-03T15:05:49;2.95;;;1.00;;
22949;SDS011;11641;51.018;4.474;2023-04-03T15:08:17;3.53;;;1.10;;
22949;SDS011;11641;51.018;4.474;2023-04-03T15:10:49;2.58;;;1.20;;
22949;SDS011;11641;51.018;4.474;2023-04-03T15:13:17;11.93;;;1.58;;
22949;SDS011;11641;51.018;4.474;2023-04-03T15:15:45;7.60;;;1.50;;
22949;SDS011;11641;51.018;4.474;2023-04-03T15:18:35;4.20;;;1.00;;
22949;SDS011;11641;51.018;4.474;2023-04-03T15:21:01;3.92;;;1.20;;
22949;SDS011;11641;51.018;4.474;2023-04-03T15:23:27;7.38;;;1.02;;
22949;SDS011;11641;51.018;4.474;2023-04-03T15:25:55;6.18;;;1.35;;
22949;SDS011;11641;51.018;4.474;2023-04-03T15:30:52;3.88;;;1.00;;
22949;SDS011;11641;51.018;4.474;2023-04-03T15:33:18;2.00;;;0.80;;
22949;SDS011;11641;51.018;4.474;2023-04-03T15:35:44;1.77;;;0.93;;
22949;SDS011;11641;51.018;4.474;2023-04-03T15:38:12;3.75;;;1.10;;
22949;SDS011;11641;51.018;4.474;2023-04-03T15:40:38;12.45;;;1.50;;
22949;SDS011;11641;51.018;4.474;2023-04-03T15:43:05;18.42;;;1.70;;
22949;SDS011;11641;51.018;4.474;2023-04-03T15:45:31;7.38;;;1.42;;
22949;SDS011;11641;51.018;4.474;2023-04-03T15:47:58;5.60;;;1.30;;
22949;SDS011;11641;51.018;4.474;2023-04-03T15:50:24;4.47;;;1.25;;
22949;SDS011;11641;51.018;4.474;2023-04-03T15:52:51;4.95;;;1.08;;
22949;SDS011;11641;51.018;4.474;2023-04-03T15:55:22;5.15;;;1.10;;
22949;SDS011;11641;51.018;4.474;2023-04-03T15:57:53;4.53;;;1.30;;
22949;SDS011;11641;51.018;4.474;2023-04-03T16:00:19;5.50;;;1.40;;
22949;SDS011;11641;51.018;4.474;2023-04-03T16:02:46;5.03;;;1.00;;
22949;SDS011;11641;51.018;4.474;2023-04-03T16:05:13;2.53;;;1.30;;
22949;SDS011;11641;51.018;4.474;2023-04-03T16:07:42;4.13;;;1.50;;
22949;SDS011;11641;51.018;4.474;2023-04-03T16:10:09;4.80;;;1.15;;
22949;SDS011;11641;51.018;4.474;2023-04-03T16:12:36;4.72;;;1.45;;
22949;SDS011;11641;51.018;4.474;2023-04-03T16:15:05;2.63;;;1.08;;
22949;SDS011;11641;51.018;4.474;2023-04-03T16:17:31;2.75;;;1.00;;
22949;SDS011;11641;51.018;4.474;2023-04-03T16:19:59;2.80;;;1.10;;
22949;SDS011;11641;51.018;4.474;2023-04-03T16:22:25;2.97;;;1.15;;
22949;SDS011;11641;51.018;4.474;2023-04-03T16:24:52;4.85;;;1.08;;
22949;SDS011;11641;51.018;4.474;2023-04-03T16:27:19;3.40;;;1.15;;
22949;SDS011;11641;51.018;4.474;2023-04-03T16:29:45;3.55;;;1.25;;
22949;SDS011;11641;51.018;4.474;2023-04-03T16:32:11;2.50;;;1.10;;
22949;SDS011;11641;51.018;4.474;2023-04-03T16:34:37;3.80;;;1.58;;
22949;SDS011;11641;51.018;4.474;2023-04-03T16:37:05;2.20;;;1.08;;
22949;SDS011;11641;51.018;4.474;2023-04-03T16:39:33;2.13;;;1.20;;
22949;SDS011;11641;51.018;4.474;2023-04-03T16:41:59;2.67;;;1.13;;
22949;SDS011;11641;51.018;4.474;2023-04-03T16:44:25;2.90;;;1.13;;
22949;SDS011;11641;51.018;4.474;2023-04-03T16:46:53;6.80;;;1.73;;
22949;SDS011;11641;51.018;4.474;2023-04-03T16:49:19;3.70;;;1.48;;
22949;SDS011;11641;51.018;4.474;2023-04-03T16:51:44;7.05;;;1.40;;
22949;SDS011;11641;51.018;4.474;2023-04-03T16:54:10;3.90;;;1.48;;
22949;SDS011;11641;51.018;4.474;2023-04-03T16:56:40;4.57;;;1.20;;
22949;SDS011;11641;51.018;4.474;2023-04-03T16:59:06;4.25;;;1.20;;
22949;SDS011;11641;51.018;4.474;2023-04-03T17:01:32;2.53;;;1.35;;
22949;SDS011;11641;51.018;4.474;2023-04-03T17:04:00;3.92;;;1.40;;
22949;SDS011;11641;51.018;4.474;2023-04-03T17:06:28;3.53;;;1.15;;
22949;SDS011;11641;51.018;4.474;2023-04-03T17:08:54;3.80;;;1.33;;
22949;SDS011;11641;51.018;4.474;2023-04-03T17:11:22;3.75;;;1.33;;
22949;SDS011;11641;51.018;4.474;2023-04-03T17:13:48;5.03;;;1.50;;
22949;SDS011;11641;51.018;4.474;2023-04-03T17:16:14;4.45;;;1.50;;
22949;SDS011;11641;51.018;4.474;2023-04-03T17:18:40;2.88;;;1.58;;
22949;SDS011;11641;51.018;4.474;2023-04-03T17:21:06;3.05;;;1.40;;